Sackville, Canada
Current Conditions -  °F | °C
As of 4:00 AM on Saturday 25 Oct 2014 (Local Time) from CYQM Reporting Station
Drizzle Drizzle  
Wind Chill: 40°   Ceiling: 400
Heat Index: 46°   Visibility: 2mi
Dew Point: 45°   Wind: 14mph
Humidity: 93%   Direction: 330°NNW
Pressure: 29.48"   Gusts: 21mph
Location:  45.9°N, 64.37°W
Report Text: CYQM 250700Z 33012G18KT 2SM -DZ BR OVC004 08/07 A2948 RMK SF8 SLP983
Loading
Personal Weather Stations






























Interactive Weather Map
Tropical Storm Tracking
New forecast layout! Learn more

10-Day Weather Forecast

Advertisements
Track Severe Weather on mobile